createdAt,value
2022-12-22T00:05:08.624Z,98395.31
2022-12-22T00:15:55.053Z,98393.16
2022-12-22T00:26:40.369Z,98383.27
2022-12-22T00:37:29.209Z,98389.61
2022-12-22T00:48:14.370Z,98389.20
2022-12-22T00:58:59.399Z,98410.92
2022-12-22T01:09:44.576Z,98402.17
2022-12-22T01:20:31.271Z,98407.59
2022-12-22T01:31:16.745Z,98409.70
2022-12-22T01:42:02.548Z,98406.38
2022-12-22T01:52:52.720Z,98399.16
2022-12-22T02:03:40.062Z,98397.23
2022-12-22T02:14:38.700Z,98386.92
2022-12-22T02:25:29.502Z,98386.94
2022-12-22T02:36:22.524Z,98382.41
2022-12-22T02:47:16.353Z,98379.75
2022-12-22T02:58:01.383Z,98387.10
2022-12-22T03:08:47.246Z,98395.03
2022-12-22T03:19:32.817Z,98382.61
2022-12-22T03:30:01.279Z,98377.33
2022-12-22T03:40:29.361Z,98379.31
2022-12-22T03:50:57.719Z,98358.38
2022-12-22T04:01:26.080Z,98350.19
2022-12-22T04:12:12.172Z,98348.21
2022-12-22T04:22:40.313Z,98339.33
2022-12-22T04:33:08.065Z,98334.02
2022-12-22T04:43:36.423Z,98333.19
2022-12-22T04:54:04.114Z,98327.59
2022-12-22T05:04:32.477Z,98318.34
2022-12-22T05:15:00.115Z,98318.92
2022-12-22T05:25:34.415Z,98311.27
2022-12-22T05:36:03.594Z,98300.27
2022-12-22T05:46:31.355Z,98294.23
2022-12-22T05:56:59.095Z,98274.11
2022-12-22T06:07:27.306Z,98289.41
2022-12-22T06:17:55.677Z,98278.08
2022-12-22T06:28:23.628Z,98279.59
2022-12-22T06:38:51.414Z,98273.63
2022-12-22T06:49:19.059Z,98265.89
2022-12-22T06:59:48.076Z,98269.52
2022-12-22T07:10:19.037Z,98257.21
2022-12-22T07:20:46.996Z,98244.69
2022-12-22T07:31:16.808Z,98237.17
2022-12-22T07:42:02.168Z,98238.08
2022-12-22T07:52:29.855Z,98233.42
2022-12-22T08:03:00.912Z,98229.21
2022-12-22T08:13:28.810Z,98222.64
2022-12-22T08:23:56.484Z,98224.11
2022-12-22T08:34:24.126Z,98219.33
2022-12-22T08:44:53.517Z,98208.99
2022-12-22T08:55:21.141Z,98199.98
2022-12-22T09:05:48.774Z,98180.23
2022-12-22T09:16:16.441Z,98181.73
2022-12-22T09:26:44.263Z,98160.20
2022-12-22T09:37:11.980Z,98145.75
2022-12-22T09:47:41.531Z,98127.83
2022-12-22T09:58:25.990Z,98115.80
2022-12-22T10:08:56.513Z,98094.83
2022-12-22T10:19:24.244Z,98095.52
2022-12-22T10:29:52.554Z,98080.35
2022-12-22T10:40:22.813Z,98059.30
2022-12-22T10:50:51.636Z,98042.56
2022-12-22T11:01:26.637Z,98032.55
2022-12-22T11:12:00.919Z,98019.95
2022-12-22T11:22:40.467Z,98004.73
2022-12-22T11:33:23.176Z,97998.11
2022-12-22T11:44:01.797Z,97986.69
2022-12-22T11:54:47.603Z,97983.70
2022-12-22T12:05:39.438Z,97973.38
2022-12-22T12:16:18.008Z,97956.80
2022-12-22T12:26:50.000Z,97941.73
2022-12-22T12:37:26.520Z,97937.84
2022-12-22T12:47:54.505Z,97940.23
2022-12-22T12:58:54.393Z,97947.45
2022-12-22T13:20:17.321Z,97938.29
2022-12-22T13:30:49.566Z,97932.27
2022-12-22T13:41:26.815Z,97922.73
2022-12-22T13:51:58.687Z,97914.96
2022-12-22T14:02:35.218Z,97911.50
2022-12-22T14:13:07.676Z,97912.77
2022-12-22T14:23:39.888Z,97908.59
2022-12-22T14:34:20.916Z,97880.20
2022-12-22T14:44:49.710Z,97881.45
2022-12-22T14:55:28.692Z,97874.20
2022-12-22T15:05:54.730Z,97877.66
2022-12-22T15:16:24.483Z,97864.38
2022-12-22T15:26:52.216Z,97875.71
2022-12-22T15:37:19.954Z,97870.54
2022-12-22T15:47:50.346Z,97879.67
2022-12-22T15:58:20.391Z,97889.53
2022-12-22T16:08:50.625Z,97896.09
2022-12-22T16:19:20.048Z,97888.34
2022-12-22T16:29:52.749Z,97879.73
2022-12-22T16:40:21.693Z,97880.41
2022-12-22T16:50:50.035Z,97881.44
2022-12-22T17:01:37.427Z,97879.55
2022-12-22T17:12:07.316Z,97881.79
2022-12-22T17:22:36.503Z,97863.86
2022-12-22T17:33:03.997Z,97847.52
2022-12-22T17:43:31.612Z,97852.52
2022-12-22T17:54:00.032Z,97848.04
2022-12-22T18:04:27.600Z,97850.10
2022-12-22T18:14:55.150Z,97838.56
2022-12-22T18:25:24.779Z,97842.01
2022-12-22T18:35:52.754Z,97838.38
2022-12-22T18:46:21.101Z,97825.80
2022-12-22T18:56:49.454Z,97812.86
2022-12-22T19:07:20.124Z,97805.15
2022-12-22T19:17:47.862Z,97803.95
2022-12-22T19:28:26.513Z,97810.16
2022-12-22T19:39:02.601Z,97813.09
2022-12-22T19:49:31.929Z,97824.45
2022-12-22T20:00:00.005Z,97826.51
2022-12-22T20:10:29.237Z,97817.05
2022-12-22T20:21:02.458Z,97822.02
2022-12-22T20:31:30.259Z,97829.94
2022-12-22T20:41:58.040Z,97823.87
2022-12-22T20:52:25.518Z,97826.71
2022-12-22T21:02:53.168Z,97828.31
2022-12-22T21:13:21.271Z,97829.13
2022-12-22T21:23:48.990Z,97812.80
2022-12-22T21:34:16.639Z,97819.83
2022-12-22T21:44:45.327Z,97824.26
2022-12-22T21:55:13.096Z,97827.69
2022-12-22T22:05:41.945Z,97833.38
2022-12-22T22:16:11.218Z,97838.39
2022-12-22T22:26:39.090Z,97836.26
2022-12-22T22:37:06.717Z,97836.27
2022-12-22T22:47:34.290Z,97834.30
2022-12-22T22:58:01.789Z,97840.40
2022-12-22T23:08:30.588Z,97848.94
2022-12-22T23:18:58.225Z,97841.23
2022-12-22T23:29:26.006Z,97848.69
2022-12-22T23:39:53.466Z,97858.17
2022-12-22T23:50:21.063Z,97860.77
